Dades meteomassalio
Diari Summary for Abril 2, 2017 Units:  Metric    English   Both
« Previous Day
Next Day »
Diari Semanal Mensual Anual Personalitzat
  Maxima: Minima: Mijana:
Temperatura: -17.8 °C -13.1 °C -12.6 °C
Rosada: -17.8 °C -15.8 °C -15.6 °C
Humitat: Humidity % 58 % 68 %
Velocitat del vent: 0 km/h 23.8 km/h 42.6 km/h
Racha vent: 0 km/h - -
Vent:- - WNW
Pressio: 0 hPa 34520.3 hPa -
Pluja: 0 mm    
Historical Graphs
 
 
Tabular Data for Abril 2, 2017
Time Temperature Dew Point Pressure Wind Wind Speed Wind Gust Humidity Rainfall Rate (Hourly) solar Conditions
-17.8 °C -17.8 °C 0 hPa Calm     Humidity % 0 mm SolarRadiationWatts/m^2 W/m2 Conditions
00:04 -11.9 °C -15.4 °C 34577.8 hPa WNW 29.8 km/h 29.8 km/h 65 % 0 mm 0.0 W/m2 RA
00:09 -11.9 °C -15.3 °C 34577.8 hPa West 33.6 km/h 33.6 km/h 66 % 0 mm 0.0 W/m2 CLR
00:14 -12 °C -15.4 °C 34577.8 hPa West 35.7 km/h 35.7 km/h 66 % 0 mm 0.0 W/m2 CLR
00:19 -12.1 °C -15.3 °C 34577.8 hPa WNW 29.8 km/h 29.8 km/h 67 % 0 mm 0.0 W/m2 CLR
00:24 -12.1 °C -15.3 °C 34577.8 hPa West 38.8 km/h 38.8 km/h 68 % 0 mm 0.0 W/m2 CLR
00:29 -12.2 °C -15.3 °C 34577.8 hPa West 32.8 km/h 32.8 km/h 68 % 0 mm 0.0 W/m2 CLR
00:34 -12.2 °C -15.3 °C 34577.8 hPa West 50.7 km/h 50.7 km/h 68 % 0 mm 0.0 W/m2 CLR
00:39 -12.2 °C -15.3 °C 34577.8 hPa West 35.7 km/h 35.7 km/h 68 % 0 mm 0.0 W/m2 CLR
00:44 -12.2 °C -15.3 °C 34567.7 hPa West 38.8 km/h 38.8 km/h 68 % 0 mm 0.0 W/m2 CLR
00:49 -12.2 °C -15.4 °C 34577.8 hPa West 38.8 km/h 38.8 km/h 68 % 0 mm 0.0 W/m2 CLR
00:54 -12.3 °C -15.4 °C 34577.8 hPa WNW 29.8 km/h 29.8 km/h 68 % 0 mm 0.0 W/m2 CLR
00:59 -12.3 °C -15.4 °C 34577.8 hPa WNW 35.7 km/h 35.7 km/h 68 % 0 mm 0.0 W/m2 CLR
01:04 -12.4 °C -15.5 °C 34577.8 hPa WNW 44.7 km/h 44.7 km/h 68 % 0 mm 0.0 W/m2 CLR
01:09 -12.4 °C -15.4 °C 34577.8 hPa NW 29.8 km/h 29.8 km/h 69 % 0 mm 0.0 W/m2 CLR
01:14 -12.4 °C -15.4 °C 34577.8 hPa WNW 32.8 km/h 32.8 km/h 69 % 0 mm 0.0 W/m2 CLR
01:19 -12.4 °C -15.4 °C 34567.7 hPa WNW 31.1 km/h 31.1 km/h 69 % 0 mm 0.0 W/m2 CLR
01:24 -12.6 °C -15.5 °C 34567.7 hPa WNW 35.7 km/h 35.7 km/h 69 % 0 mm 0.0 W/m2 CLR
01:29 -12.6 °C -15.6 °C 34567.7 hPa West 32.8 km/h 32.8 km/h 69 % 0 mm 0.0 W/m2 CLR
01:34 -12.5 °C -15.5 °C 34567.7 hPa West 35.7 km/h 35.7 km/h 69 % 0 mm 0.0 W/m2 CLR
01:39 -12.5 °C -15.5 °C 34567.7 hPa WNW 26.9 km/h 26.9 km/h 69 % 0 mm 0.0 W/m2 CLR
01:44 -12.6 °C -15.5 °C 34567.7 hPa West 32.8 km/h 32.8 km/h 69 % 0 mm 0.0 W/m2 CLR
01:49 -12.6 °C -15.6 °C 34567.7 hPa West 32.8 km/h 32.8 km/h 69 % 0 mm 0.0 W/m2 CLR
01:54 -12.6 °C -15.6 °C 34567.7 hPa WNW 29.8 km/h 29.8 km/h 69 % 0 mm 0.0 W/m2 CLR
01:59 -12.6 °C -15.5 °C 34567.7 hPa West 31.1 km/h 31.1 km/h 69 % 0 mm 0.0 W/m2 CLR
02:04 -12.5 °C -15.5 °C 34567.7 hPa West 32.8 km/h 32.8 km/h 69 % 0 mm 0.0 W/m2 CLR
02:10 -12.6 °C -15.6 °C 34567.7 hPa West 32.8 km/h 32.8 km/h 69 % 0 mm 0.0 W/m2 CLR
02:15 -12.6 °C -15.6 °C 34567.7 hPa West 23.8 km/h 23.8 km/h 69 % 0 mm 0.0 W/m2 CLR
02:20 -12.7 °C -15.5 °C 34567.7 hPa West 44.7 km/h 44.7 km/h 70 % 0 mm 0.0 W/m2 CLR
02:25 -12.7 °C -15.5 °C 34554.1 hPa West 38.8 km/h 38.8 km/h 70 % 0 mm 0.0 W/m2 CLR
02:30 -12.7 °C -15.6 °C 34554.1 hPa WNW 38.8 km/h 38.8 km/h 70 % 0 mm 0.0 W/m2 CLR
02:35 -12.7 °C -15.6 °C 34554.1 hPa WNW 31.1 km/h 31.1 km/h 70 % 0 mm 0.0 W/m2 CLR
02:40 -12.7 °C -15.5 °C 34554.1 hPa WNW 32.8 km/h 32.8 km/h 71 % 0 mm 0.0 W/m2 CLR
02:45 -12.7 °C -15.5 °C 34554.1 hPa West 44.7 km/h 44.7 km/h 71 % 0 mm 0.0 W/m2 CLR
02:50 -12.7 °C -15.5 °C 34554.1 hPa West 38.8 km/h 38.8 km/h 71 % 0 mm 0.0 W/m2 CLR
02:55 -12.7 °C -15.5 °C 34544 hPa WNW 50.7 km/h 50.7 km/h 71 % 0 mm 0.0 W/m2 CLR
03:00 -12.7 °C -15.5 °C 34554.1 hPa WNW 46.7 km/h 46.7 km/h 70 % 0 mm 0.0 W/m2 CLR
03:05 -12.7 °C -15.5 °C 34554.1 hPa WNW 35.7 km/h 35.7 km/h 70 % 0 mm 0.0 W/m2 CLR
03:10 -12.7 °C -15.5 °C 34554.1 hPa WNW 38.8 km/h 38.8 km/h 71 % 0 mm 0.0 W/m2 CLR
03:15 -12.7 °C -15.5 °C 34554.1 hPa WNW 41.7 km/h 41.7 km/h 71 % 0 mm 0.0 W/m2 CLR
03:20 -12.7 °C -15.5 °C 34554.1 hPa West 35.7 km/h 35.7 km/h 71 % 0 mm 0.0 W/m2 CLR
03:25 -12.7 °C -15.5 °C 34544 hPa West 41.7 km/h 41.7 km/h 71 % 0 mm 0.0 W/m2 CLR
03:30 -12.8 °C -15.6 °C 34544 hPa WNW 41.7 km/h 41.7 km/h 71 % 0 mm 0.0 W/m2 CLR
03:35 -12.8 °C -15.6 °C 34544 hPa WNW 35.7 km/h 35.7 km/h 71 % 0 mm 0.0 W/m2 CLR
03:40 -12.8 °C -15.6 °C 34544 hPa West 33.6 km/h 33.6 km/h 71 % 0 mm 0.0 W/m2 CLR
03:45 -12.9 °C -15.5 °C 34544 hPa WNW 41.7 km/h 41.7 km/h 72 % 0 mm 0.0 W/m2 CLR
03:50 -12.9 °C -15.6 °C 34544 hPa WNW 32.8 km/h 32.8 km/h 72 % 0 mm 0.0 W/m2 CLR
03:55 -12.9 °C -15.6 °C 34544 hPa WNW 44.7 km/h 44.7 km/h 72 % 0 mm 0.0 W/m2 CLR
04:00 -12.9 °C -15.6 °C 34544 hPa WNW 32.8 km/h 32.8 km/h 72 % 0 mm 0.0 W/m2 CLR
04:05 -12.9 °C -15.6 °C 34533.8 hPa NW 32.8 km/h 32.8 km/h 72 % 0 mm 0.0 W/m2 CLR
04:10 -13 °C -15.7 °C 34533.8 hPa WNW 31.1 km/h 31.1 km/h 72 % 0 mm 0.0 W/m2 CLR
04:15 -13 °C -15.6 °C 34533.8 hPa NW 38.8 km/h 38.8 km/h 73 % 0 mm 0.0 W/m2 CLR
04:20 -12.9 °C -15.6 °C 34533.8 hPa West 32.8 km/h 32.8 km/h 72 % 0 mm 0.0 W/m2 CLR
04:25 -12.9 °C -15.6 °C 34533.8 hPa WNW 36.2 km/h 36.2 km/h 72 % 0 mm 0.0 W/m2 CLR
04:30 -12.9 °C -15.6 °C 34533.8 hPa NW 38.8 km/h 38.8 km/h 72 % 0 mm 0.0 W/m2 CLR
04:35 -12.9 °C -15.6 °C 34533.8 hPa NW 32.8 km/h 32.8 km/h 72 % 0 mm 0.0 W/m2 CLR
04:40 -12.9 °C -15.6 °C 34533.8 hPa WNW 38.8 km/h 38.8 km/h 72 % 0 mm 0.0 W/m2 CLR
04:45 -12.9 °C -15.7 °C 34520.3 hPa WNW 32.8 km/h 32.8 km/h 71 % 0 mm 0.0 W/m2 CLR
04:50 -12.8 °C -15.6 °C 34520.3 hPa NW 62.6 km/h 62.6 km/h 71 % 0 mm 0.0 W/m2 CLR
04:55 -12.9 °C -15.7 °C 34520.3 hPa WNW 38.8 km/h 38.8 km/h 71 % 0 mm 0.0 W/m2 CLR
05:00 -12.9 °C -15.7 °C 34520.3 hPa West 41.7 km/h 41.7 km/h 71 % 0 mm 0.0 W/m2 CLR
05:05 -12.8 °C -15.7 °C 34520.3 hPa WNW 50.7 km/h 50.7 km/h 70 % 0 mm 0.0 W/m2 CLR
05:10 -12.8 °C -15.6 °C 34520.3 hPa WNW 44.7 km/h 44.7 km/h 71 % 0 mm 0.0 W/m2 CLR
05:15 -12.8 °C -15.7 °C 34520.3 hPa WNW 53.6 km/h 53.6 km/h 70 % 0 mm 0.0 W/m2 CLR
05:20 -12.9 °C -15.7 °C 34520.3 hPa NNW 44.7 km/h 44.7 km/h 70 % 0 mm 0.0 W/m2 CLR
05:25 -12.9 °C -15.7 °C 34533.8 hPa NW 47.6 km/h 47.6 km/h 71 % 0 mm 0.0 W/m2 CLR
05:30 -12.9 °C -15.7 °C 34520.3 hPa WNW 59.5 km/h 59.5 km/h 71 % 0 mm 0.0 W/m2 CLR
05:35 -12.9 °C -15.7 °C 34520.3 hPa WNW 41.7 km/h 41.7 km/h 71 % 0 mm 0.0 W/m2 CLR
05:40 -12.8 °C -15.7 °C 34520.3 hPa WNW 59.5 km/h 59.5 km/h 70 % 0 mm 0.0 W/m2 CLR
05:45 -12.8 °C -15.7 °C 34520.3 hPa WNW 54.4 km/h 54.4 km/h 70 % 0 mm 0.0 W/m2 CLR
05:50 -12.8 °C -15.7 °C 34533.8 hPa WNW 44.7 km/h 44.7 km/h 70 % 0 mm 0.0 W/m2 CLR
05:55 -12.8 °C -15.7 °C 34533.8 hPa NW 53.6 km/h 53.6 km/h 70 % 0 mm 0.0 W/m2 CLR
06:00 -12.8 °C -15.7 °C 34533.8 hPa WNW 44.7 km/h 44.7 km/h 70 % 0 mm 0.0 W/m2 CLR
06:05 -12.9 °C -15.7 °C 34533.8 hPa WNW 44.7 km/h 44.7 km/h 70 % 0 mm 0.0 W/m2 CLR
06:10 -12.8 °C -15.7 °C 34533.8 hPa WNW 50.7 km/h 50.7 km/h 70 % 0 mm 0.0 W/m2 CLR
06:15 -12.9 °C -15.7 °C 34533.8 hPa WNW 47.6 km/h 47.6 km/h 70 % 0 mm 0.0 W/m2 CLR
06:20 -12.9 °C -15.8 °C 34520.3 hPa West 41.7 km/h 41.7 km/h 70 % 0 mm 0.0 W/m2 CLR
06:25 -12.9 °C -15.8 °C 34520.3 hPa WNW 47.6 km/h 47.6 km/h 70 % 0 mm 0.0 W/m2 CLR
06:30 -12.8 °C -15.7 °C 34520.3 hPa WNW 65.5 km/h 65.5 km/h 70 % 0 mm 0.0 W/m2 CLR
06:35 -12.9 °C -15.7 °C 34520.3 hPa WNW 53.6 km/h 53.6 km/h 70 % 0 mm 0.0 W/m2 CLR
06:40 -12.9 °C -15.8 °C 34520.3 hPa West 62.6 km/h 62.6 km/h 70 % 0 mm 0.0 W/m2 CLR
06:45 -12.9 °C -15.8 °C 34520.3 hPa NW 47.6 km/h 47.6 km/h 70 % 0 mm 0.0 W/m2 CLR
06:50 -12.9 °C -15.7 °C 34520.3 hPa WNW 53.6 km/h 53.6 km/h 71 % 0 mm 0.0 W/m2 CLR
06:55 -13 °C -15.8 °C 34520.3 hPa NW 59.5 km/h 59.5 km/h 71 % 0 mm 0.0 W/m2 CLR
07:00 -13 °C -15.8 °C 34533.8 hPa NW 53.6 km/h 53.6 km/h 71 % 0 mm 0.0 W/m2 CLR
07:05 -13.1 °C -15.8 °C 34520.3 hPa WNW 50.7 km/h 50.7 km/h 71 % 0 mm 0.0 W/m2 CLR
07:10 -13.1 °C -15.8 °C 34520.3 hPa NW 62.6 km/h 62.6 km/h 71 % 0 mm 0.0 W/m2 CLR
07:15 -13.1 °C -15.8 °C 34520.3 hPa WNW 46.7 km/h 46.7 km/h 71 % 0 mm 0.0 W/m2 CLR
07:20 -13.1 °C -15.8 °C 34533.8 hPa NW 50.7 km/h 50.7 km/h 72 % 0 mm 0.0 W/m2 CLR
07:26 -13.1 °C -15.7 °C 34533.8 hPa NW 65.5 km/h 65.5 km/h 72 % 0 mm 0.0 W/m2 CLR
07:31 -13.1 °C -15.7 °C 34520.3 hPa NW 50.7 km/h 50.7 km/h 72 % 0 mm 0.0 W/m2 CLR
07:36 -13 °C -15.8 °C 34533.8 hPa WNW 54.4 km/h 54.4 km/h 71 % 0 mm 0.0 W/m2 OVC
07:41 -13 °C -15.7 °C 34533.8 hPa WNW 62.6 km/h 62.6 km/h 71 % 0 mm 0.0 W/m2 OVC
07:46 -12.9 °C -15.7 °C 34520.3 hPa West 74.5 km/h 74.5 km/h 71 % 0 mm 5.0 W/m2 OVC
07:51 -12.9 °C -15.7 °C 34520.3 hPa WNW 74.5 km/h 74.5 km/h 71 % 0 mm 7.0 W/m2 BKN
07:56 -12.9 °C -15.7 °C 34520.3 hPa WNW 67.3 km/h 67.3 km/h 71 % 0 mm 11.0 W/m2 BKN
08:01 -12.9 °C -15.7 °C 34533.8 hPa NW 62.6 km/h 62.6 km/h 71 % 0 mm 12.0 W/m2 BKN
08:06 -12.9 °C -15.7 °C 34533.8 hPa WNW 65.5 km/h 65.5 km/h 71 % 0 mm 14.0 W/m2 BKN
22:09 -11.3 °C -15.7 °C 34601.5 hPa WNW 93.2 km/h 93.2 km/h 58 % 0 mm 0.0 W/m2 CLR
22:14 -11.3 °C -15.7 °C 34601.5 hPa West 35.7 km/h 35.7 km/h 59 % 0 mm 0.0 W/m2 CLR
22:19 -11.3 °C -15.7 °C 34601.5 hPa West 32.8 km/h 32.8 km/h 59 % 0 mm 0.0 W/m2 CLR
22:24 -11.4 °C -15.7 °C 34601.5 hPa West 44.7 km/h 44.7 km/h 59 % 0 mm 0.0 W/m2 CLR
22:29 -11.4 °C -15.6 °C 34611.7 hPa NW 35.7 km/h 35.7 km/h 60 % 0 mm 0.0 W/m2 CLR
22:34 -11.5 °C -15.7 °C 34601.5 hPa WNW 29.8 km/h 29.8 km/h 60 % 0 mm 0.0 W/m2 CLR
22:39 -11.5 °C -15.7 °C 34611.7 hPa West 50.7 km/h 50.7 km/h 60 % 0 mm 0.0 W/m2 CLR
22:44 -11.5 °C -15.7 °C 34611.7 hPa WNW 33.6 km/h 33.6 km/h 60 % 0 mm 0.0 W/m2 CLR
22:49 -11.6 °C -15.7 °C 34611.7 hPa WNW 29.8 km/h 29.8 km/h 60 % 0 mm 0.0 W/m2 CLR
22:54 -11.6 °C -15.6 °C 34611.7 hPa West 38.8 km/h 38.8 km/h 61 % 0 mm 0.0 W/m2 CLR
22:59 -11.6 °C -15.7 °C 34625.2 hPa WNW 41.7 km/h 41.7 km/h 61 % 0 mm 0.0 W/m2 CLR
23:04 -11.7 °C -15.7 °C 34625.2 hPa West 32.8 km/h 32.8 km/h 61 % 0 mm 0.0 W/m2 CLR
23:09 -11.7 °C -15.7 °C 34625.2 hPa WNW 38.8 km/h 38.8 km/h 61 % 0 mm 0.0 W/m2 CLR
23:14 -11.8 °C -15.8 °C 34625.2 hPa West 44.7 km/h 44.7 km/h 61 % 0 mm 0.0 W/m2 CLR
23:19 -11.8 °C -15.7 °C 34625.2 hPa WNW 47.6 km/h 47.6 km/h 62 % 0 mm 0.0 W/m2 CLR
23:25 -11.9 °C -15.7 °C 34625.2 hPa West 35.7 km/h 35.7 km/h 63 % 0 mm 0.0 W/m2 CLR
23:30 -11.9 °C -15.7 °C 34635.4 hPa West 31.1 km/h 31.1 km/h 63 % 0 mm 0.0 W/m2 CLR
23:34 -11.9 °C -15.7 °C 34635.4 hPa WSW 38.8 km/h 38.8 km/h 63 % 0 mm 0.0 W/m2 CLR
23:40 -12 °C -15.7 °C 34635.4 hPa WSW 35.7 km/h 35.7 km/h 63 % 0 mm 0.0 W/m2 CLR
23:45 -12 °C -15.6 °C 34635.4 hPa West 35.7 km/h 35.7 km/h 64 % 0 mm 0.0 W/m2 CLR
23:55 -12.1 °C -15.7 °C 34635.4 hPa West 44.7 km/h 44.7 km/h 64 % 0 mm 0.0 W/m2 CLR
Lo Temps de Massalio
Compliments of Weather Underground - 768 kb